createdAt,value
2022-12-08T00:03:18.135Z,3.88
2022-12-08T00:08:38.855Z,4.18
2022-12-08T00:13:41.128Z,4.15
2022-12-08T00:18:43.008Z,3.65
2022-12-08T00:23:44.851Z,4.43
2022-12-08T00:28:46.671Z,4.18
2022-12-08T00:33:48.579Z,3.95
2022-12-08T00:38:50.553Z,4.15
2022-12-08T00:43:52.358Z,3.58
2022-12-08T00:48:54.248Z,3.78
2022-12-08T00:53:56.198Z,3.97
2022-12-08T00:58:58.091Z,4.45
2022-12-08T01:04:06.813Z,4.05
2022-12-08T01:09:09.248Z,3.65
2022-12-08T01:14:11.102Z,3.92
2022-12-08T01:19:15.204Z,4.30
2022-12-08T01:24:19.717Z,4.05
2022-12-08T01:29:21.651Z,4.30
2022-12-08T01:34:23.549Z,4.55
2022-12-08T01:39:25.457Z,4.68
2022-12-08T01:44:27.217Z,4.30
2022-12-08T01:49:32.692Z,4.80
2022-12-08T01:54:39.991Z,5.38
2022-12-08T01:59:46.856Z,4.90
2022-12-08T02:04:48.775Z,5.43
2022-12-08T02:09:51.174Z,4.93
2022-12-08T02:14:53.410Z,4.88
2022-12-08T02:19:55.176Z,5.28
2022-12-08T02:25:07.847Z,5.05
2022-12-08T02:30:20.108Z,5.00
2022-12-08T02:35:24.741Z,6.53
2022-12-08T02:40:37.296Z,5.25
2022-12-08T02:45:46.331Z,5.13
2022-12-08T02:50:48.226Z,5.60
2022-12-08T02:56:17.395Z,5.32
2022-12-08T03:01:40.785Z,4.97
2022-12-08T03:06:51.563Z,5.78
2022-12-08T03:12:01.396Z,5.03
2022-12-08T03:22:07.403Z,4.32
2022-12-08T03:27:21.944Z,4.18
2022-12-08T03:32:33.569Z,4.85
2022-12-08T03:37:36.993Z,5.13
2022-12-08T03:42:38.819Z,4.95
2022-12-08T03:47:40.672Z,5.18
2022-12-08T03:52:42.516Z,4.80
2022-12-08T03:57:44.653Z,4.85
2022-12-08T04:02:46.643Z,4.90
2022-12-08T04:07:48.599Z,4.47
2022-12-08T04:12:50.408Z,4.78
2022-12-08T04:17:52.248Z,5.53
2022-12-08T04:22:54.126Z,4.85
2022-12-08T04:27:56.498Z,5.55
2022-12-08T04:32:58.821Z,4.97
2022-12-08T04:38:01.149Z,5.32
2022-12-08T04:43:03.053Z,5.45
2022-12-08T04:48:05.104Z,5.63
2022-12-08T04:53:06.972Z,5.60
2022-12-08T04:58:12.873Z,5.20
2022-12-08T05:03:15.582Z,5.57
2022-12-08T05:08:17.580Z,5.18
2022-12-08T05:13:19.460Z,4.80
2022-12-08T05:18:21.313Z,5.07
2022-12-08T05:23:23.117Z,5.85
2022-12-08T05:28:41.415Z,5.15
2022-12-08T05:33:45.554Z,5.22
2022-12-08T05:38:47.971Z,5.38
2022-12-08T05:43:50.355Z,5.20
2022-12-08T05:48:52.393Z,5.35
2022-12-08T05:53:54.665Z,5.50
2022-12-08T05:58:56.489Z,6.13
2022-12-08T06:03:59.946Z,6.68
2022-12-08T06:09:05.915Z,5.63
2022-12-08T06:14:12.316Z,5.72
2022-12-08T06:19:14.216Z,5.30
2022-12-08T06:24:16.083Z,4.90
2022-12-08T06:29:17.926Z,4.40
2022-12-08T06:34:19.818Z,4.75
2022-12-08T06:39:21.755Z,4.63
2022-12-08T06:44:23.687Z,4.70
2022-12-08T06:49:25.514Z,4.95
2022-12-08T06:54:27.778Z,5.32
2022-12-08T06:59:29.642Z,4.63
2022-12-08T07:04:31.472Z,4.88
2022-12-08T07:09:33.542Z,4.80
2022-12-08T07:14:35.409Z,4.93
2022-12-08T07:19:37.260Z,4.47
2022-12-08T07:24:39.103Z,5.65
2022-12-08T07:29:40.996Z,5.35
2022-12-08T07:34:42.802Z,5.22
2022-12-08T07:39:44.643Z,6.28
2022-12-08T07:44:46.531Z,5.63
2022-12-08T07:49:48.483Z,6.25
2022-12-08T07:54:50.447Z,6.15
2022-12-08T07:59:52.310Z,6.25
2022-12-08T08:04:54.290Z,6.72
2022-12-08T08:09:56.202Z,7.38
2022-12-08T08:14:58.199Z,7.03
2022-12-08T08:20:00.456Z,6.07
2022-12-08T08:25:02.279Z,6.38
2022-12-08T08:30:05.823Z,6.25
2022-12-08T08:35:08.593Z,6.47
2022-12-08T08:40:10.730Z,6.63
2022-12-08T08:45:12.586Z,6.90
2022-12-08T08:50:14.471Z,7.53
2022-12-08T08:55:16.901Z,6.93
2022-12-08T09:00:19.145Z,6.63
2022-12-08T09:05:21.414Z,6.85
2022-12-08T09:10:23.433Z,6.60
2022-12-08T09:15:25.315Z,6.20
2022-12-08T09:20:27.211Z,6.63
2022-12-08T09:25:29.386Z,6.22
2022-12-08T09:30:31.254Z,7.18
2022-12-08T09:35:33.802Z,8.02
2022-12-08T09:40:48.262Z,7.25
2022-12-08T09:45:51.870Z,6.88
2022-12-08T09:50:56.221Z,6.22
2022-12-08T09:56:04.464Z,6.10
2022-12-08T10:01:10.165Z,7.10
2022-12-08T10:06:25.343Z,5.72
2022-12-08T10:11:36.786Z,6.05
2022-12-08T10:16:44.692Z,4.85
2022-12-08T10:21:46.633Z,6.32
2022-12-08T10:26:49.521Z,4.90
2022-12-08T10:31:51.512Z,5.15
2022-12-08T10:36:58.725Z,5.00
2022-12-08T10:42:22.308Z,6.05
2022-12-08T10:47:26.929Z,5.18
2022-12-08T10:52:28.828Z,4.53
2022-12-08T10:57:30.634Z,4.72
2022-12-08T11:02:32.499Z,4.47
2022-12-08T11:07:34.490Z,4.57
2022-12-08T11:12:37.623Z,3.85
2022-12-08T11:17:39.669Z,4.40
2022-12-08T11:22:43.520Z,4.00
2022-12-08T11:27:48.529Z,4.28
2022-12-08T11:33:06.738Z,5.20
2022-12-08T11:38:21.529Z,4.28
2022-12-08T11:43:45.415Z,4.32
2022-12-08T11:48:54.900Z,3.55
2022-12-08T11:54:09.132Z,4.07
2022-12-08T11:59:16.723Z,3.55
2022-12-08T12:04:50.323Z,2.92
2022-12-08T12:10:08.576Z,3.20
2022-12-08T12:15:33.156Z,3.72
2022-12-08T12:21:12.876Z,3.50
2022-12-08T12:26:27.409Z,3.10
2022-12-08T12:31:33.930Z,3.55
2022-12-08T12:36:49.160Z,3.35
2022-12-08T12:41:57.042Z,3.40
2022-12-08T12:46:58.875Z,3.50
2022-12-08T12:52:00.781Z,3.67
2022-12-08T12:57:05.292Z,3.25
2022-12-08T13:02:25.347Z,3.60
2022-12-08T13:07:34.467Z,3.33
2022-12-08T13:12:36.676Z,3.60
2022-12-08T13:17:45.251Z,3.25
2022-12-08T13:23:11.350Z,3.10
2022-12-08T13:28:16.254Z,3.58
2022-12-08T13:33:24.901Z,3.60
2022-12-08T13:38:30.086Z,4.13
2022-12-08T13:43:51.318Z,3.63
2022-12-08T13:55:13.576Z,4.30
2022-12-08T13:59:59.765Z,4.00
2022-12-08T14:05:18.274Z,3.75
2022-12-08T14:10:26.383Z,3.93
2022-12-08T14:15:32.691Z,4.32
2022-12-08T14:21:12.084Z,3.97
2022-12-08T14:25:59.318Z,4.30
2022-12-08T14:31:01.403Z,4.40
2022-12-08T14:36:03.432Z,4.10
2022-12-08T14:41:11.595Z,4.90
2022-12-08T14:46:22.070Z,5.22
2022-12-08T14:51:29.748Z,6.95
2022-12-08T14:56:37.680Z,6.03
2022-12-08T15:01:40.755Z,5.63
2022-12-08T15:06:59.322Z,4.07
2022-12-08T15:12:03.925Z,4.25
2022-12-08T15:17:35.899Z,6.00
2022-12-08T15:22:39.053Z,4.60
2022-12-08T15:27:49.787Z,7.43
2022-12-08T15:32:54.321Z,5.20
2022-12-08T15:37:56.386Z,4.65
2022-12-08T15:42:58.258Z,5.38
2022-12-08T15:48:00.991Z,4.65
2022-12-08T15:53:03.135Z,7.90
2022-12-08T15:58:51.988Z,5.00
2022-12-08T16:09:06.370Z,4.10
2022-12-08T16:15:01.963Z,4.43
2022-12-08T16:19:35.819Z,4.40
2022-12-08T16:24:37.634Z,4.93
2022-12-08T16:29:39.443Z,5.13
2022-12-08T16:34:41.699Z,4.20
2022-12-08T16:39:46.098Z,3.70
2022-12-08T16:44:48.134Z,3.70
2022-12-08T16:49:49.965Z,3.97
2022-12-08T16:54:51.858Z,4.43
2022-12-08T16:59:53.672Z,4.20
2022-12-08T17:04:55.516Z,5.07
2022-12-08T17:09:59.106Z,4.40
2022-12-08T17:15:03.968Z,4.50
2022-12-08T17:20:08.928Z,3.95
2022-12-08T17:25:11.387Z,4.15
2022-12-08T17:30:15.789Z,5.10
2022-12-08T17:35:17.817Z,4.60
2022-12-08T17:40:19.682Z,4.15
2022-12-08T17:45:21.486Z,3.80
2022-12-08T17:50:23.356Z,4.40
2022-12-08T17:55:25.190Z,4.40
2022-12-08T18:00:27.455Z,4.40
2022-12-08T18:05:31.245Z,5.25
2022-12-08T18:10:33.135Z,6.72
2022-12-08T18:15:39.112Z,4.25
2022-12-08T18:20:41.304Z,4.00
2022-12-08T18:25:43.549Z,4.70
2022-12-08T18:30:45.415Z,4.57
2022-12-08T18:35:47.264Z,4.65
2022-12-08T18:40:49.083Z,4.68
2022-12-08T18:46:00.103Z,5.70
2022-12-08T18:51:02.119Z,5.53
2022-12-08T18:56:04.777Z,4.40
2022-12-08T19:01:06.594Z,4.43
2022-12-08T19:06:08.626Z,4.50
2022-12-08T19:11:26.686Z,6.43
2022-12-08T19:16:28.609Z,5.90
2022-12-08T19:21:30.585Z,5.03
2022-12-08T19:26:32.445Z,4.30
2022-12-08T19:31:34.392Z,4.53
2022-12-08T19:36:42.375Z,4.50
2022-12-08T19:42:03.094Z,4.65
2022-12-08T19:47:05.111Z,4.35
2022-12-08T19:52:07.370Z,4.65
2022-12-08T19:57:09.824Z,4.53
2022-12-08T20:02:11.835Z,4.15
2022-12-08T20:07:13.724Z,3.80
2022-12-08T20:12:15.784Z,5.38
2022-12-08T20:17:17.866Z,5.47
2022-12-08T20:22:19.740Z,4.47
2022-12-08T20:27:23.659Z,4.20
2022-12-08T20:32:25.454Z,4.22
2022-12-08T20:37:27.272Z,4.30
2022-12-08T20:42:29.136Z,4.53
2022-12-08T20:47:31.075Z,4.63
2022-12-08T20:52:33.495Z,5.05
2022-12-08T20:57:35.519Z,5.40
2022-12-08T21:02:41.668Z,6.10
2022-12-08T21:07:47.350Z,5.05
2022-12-08T21:12:49.526Z,5.65
2022-12-08T21:17:53.953Z,5.55
2022-12-08T21:22:56.053Z,5.57
2022-12-08T21:27:58.075Z,5.55
2022-12-08T21:33:01.359Z,6.07
2022-12-08T21:38:05.824Z,6.03
2022-12-08T21:43:08.102Z,4.95
2022-12-08T21:48:11.971Z,5.32
2022-12-08T21:53:14.067Z,5.75
2022-12-08T21:58:16.134Z,6.05
2022-12-08T22:03:18.107Z,6.43
2022-12-08T22:08:20.246Z,5.55
2022-12-08T22:13:22.323Z,5.55
2022-12-08T22:18:24.490Z,5.20
2022-12-08T22:23:26.468Z,4.97
2022-12-08T22:28:32.765Z,5.00
2022-12-08T22:33:34.539Z,5.18
2022-12-08T22:38:36.315Z,6.07
2022-12-08T22:43:38.383Z,6.25
2022-12-08T22:48:40.553Z,4.75
2022-12-08T22:53:43.941Z,5.43
2022-12-08T22:58:46.455Z,5.72
2022-12-08T23:03:48.719Z,5.00
2022-12-08T23:08:51.541Z,4.95
2022-12-08T23:13:53.664Z,5.22
2022-12-08T23:18:56.066Z,5.57
2022-12-08T23:24:01.155Z,6.22
2022-12-08T23:29:04.012Z,4.47
2022-12-08T23:34:06.046Z,5.10
2022-12-08T23:39:07.892Z,5.72
2022-12-08T23:44:12.054Z,5.20
2022-12-08T23:49:14.771Z,5.32
2022-12-08T23:54:16.884Z,5.43
2022-12-08T23:59:18.735Z,5.00
